sensor_id;sensor_type;location;lat;lon;timestamp;P1;durP1;ratioP1;P2;durP2;ratioP2
63499;SDS011;49654;51.142;14.924;2023-08-07T00:01:22;4.63;;;4.22;;
63499;SDS011;49654;51.142;14.924;2023-08-07T00:03:49;4.82;;;4.30;;
63499;SDS011;49654;51.142;14.924;2023-08-07T00:06:16;4.20;;;3.85;;
63499;SDS011;49654;51.142;14.924;2023-08-07T00:08:43;6.95;;;4.50;;
63499;SDS011;49654;51.142;14.924;2023-08-07T00:11:10;5.97;;;4.78;;
63499;SDS011;49654;51.142;14.924;2023-08-07T00:13:38;5.43;;;4.90;;
63499;SDS011;49654;51.142;14.924;2023-08-07T00:16:05;6.53;;;5.22;;
63499;SDS011;49654;51.142;14.924;2023-08-07T00:18:32;6.03;;;5.05;;
63499;SDS011;49654;51.142;14.924;2023-08-07T00:20:59;6.65;;;5.00;;
63499;SDS011;49654;51.142;14.924;2023-08-07T00:23:26;5.50;;;4.82;;
63499;SDS011;49654;51.142;14.924;2023-08-07T00:25:53;5.47;;;4.97;;
63499;SDS011;49654;51.142;14.924;2023-08-07T00:28:20;7.75;;;5.47;;
63499;SDS011;49654;51.142;14.924;2023-08-07T00:30:48;6.57;;;5.90;;
63499;SDS011;49654;51.142;14.924;2023-08-07T00:33:15;5.90;;;5.20;;
63499;SDS011;49654;51.142;14.924;2023-08-07T00:35:42;6.32;;;5.70;;
63499;SDS011;49654;51.142;14.924;2023-08-07T00:38:10;5.55;;;5.05;;
63499;SDS011;49654;51.142;14.924;2023-08-07T00:40:37;5.90;;;5.05;;
63499;SDS011;49654;51.142;14.924;2023-08-07T00:43:05;6.63;;;5.63;;
63499;SDS011;49654;51.142;14.924;2023-08-07T00:45:32;7.05;;;5.80;;
63499;SDS011;49654;51.142;14.924;2023-08-07T00:48:04;6.22;;;5.47;;
63499;SDS011;49654;51.142;14.924;2023-08-07T00:50:32;6.97;;;5.40;;
63499;SDS011;49654;51.142;14.924;2023-08-07T00:52:59;5.78;;;4.85;;
63499;SDS011;49654;51.142;14.924;2023-08-07T00:55:27;7.03;;;5.20;;
63499;SDS011;49654;51.142;14.924;2023-08-07T00:57:55;5.53;;;5.00;;
63499;SDS011;49654;51.142;14.924;2023-08-07T01:00:23;7.18;;;5.78;;
63499;SDS011;49654;51.142;14.924;2023-08-07T01:02:50;7.78;;;5.30;;
63499;SDS011;49654;51.142;14.924;2023-08-07T01:05:20;6.50;;;5.90;;
63499;SDS011;49654;51.142;14.924;2023-08-07T01:07:47;6.32;;;5.63;;
63499;SDS011;49654;51.142;14.924;2023-08-07T01:10:16;6.22;;;5.43;;
63499;SDS011;49654;51.142;14.924;2023-08-07T01:12:47;7.15;;;6.45;;
63499;SDS011;49654;51.142;14.924;2023-08-07T01:15:20;7.85;;;6.30;;
63499;SDS011;49654;51.142;14.924;2023-08-07T01:17:52;7.00;;;6.40;;
63499;SDS011;49654;51.142;14.924;2023-08-07T01:20:21;7.45;;;6.63;;
63499;SDS011;49654;51.142;14.924;2023-08-07T01:22:50;7.20;;;6.60;;
63499;SDS011;49654;51.142;14.924;2023-08-07T01:25:17;8.18;;;6.10;;
63499;SDS011;49654;51.142;14.924;2023-08-07T01:27:44;6.93;;;6.28;;
63499;SDS011;49654;51.142;14.924;2023-08-07T01:30:17;6.00;;;5.50;;
63499;SDS011;49654;51.142;14.924;2023-08-07T01:32:54;7.97;;;5.57;;
63499;SDS011;49654;51.142;14.924;2023-08-07T01:35:26;7.47;;;6.20;;
63499;SDS011;49654;51.142;14.924;2023-08-07T01:37:57;6.68;;;5.65;;
63499;SDS011;49654;51.142;14.924;2023-08-07T01:40:27;5.97;;;5.45;;
63499;SDS011;49654;51.142;14.924;2023-08-07T01:42:54;5.88;;;5.38;;
63499;SDS011;49654;51.142;14.924;2023-08-07T01:45:22;6.07;;;5.57;;
63499;SDS011;49654;51.142;14.924;2023-08-07T01:47:50;8.35;;;5.38;;
63499;SDS011;49654;51.142;14.924;2023-08-07T01:50:18;5.25;;;4.75;;
63499;SDS011;49654;51.142;14.924;2023-08-07T01:52:45;5.35;;;4.85;;
63499;SDS011;49654;51.142;14.924;2023-08-07T01:55:14;5.63;;;4.90;;
63499;SDS011;49654;51.142;14.924;2023-08-07T01:57:41;5.13;;;4.70;;
63499;SDS011;49654;51.142;14.924;2023-08-07T02:00:09;4.97;;;4.30;;
63499;SDS011;49654;51.142;14.924;2023-08-07T02:02:37;5.00;;;4.60;;
63499;SDS011;49654;51.142;14.924;2023-08-07T02:05:04;5.00;;;4.60;;
63499;SDS011;49654;51.142;14.924;2023-08-07T02:07:32;4.80;;;4.40;;
63499;SDS011;49654;51.142;14.924;2023-08-07T02:09:59;4.40;;;4.10;;
63499;SDS011;49654;51.142;14.924;2023-08-07T02:12:27;4.40;;;4.00;;
63499;SDS011;49654;51.142;14.924;2023-08-07T02:14:57;5.78;;;3.95;;
63499;SDS011;49654;51.142;14.924;2023-08-07T02:17:24;4.70;;;3.92;;
63499;SDS011;49654;51.142;14.924;2023-08-07T02:19:51;5.22;;;4.18;;
63499;SDS011;49654;51.142;14.924;2023-08-07T02:22:18;8.23;;;5.22;;
63499;SDS011;49654;51.142;14.924;2023-08-07T02:24:45;4.57;;;4.18;;
63499;SDS011;49654;51.142;14.924;2023-08-07T02:27:12;4.20;;;3.80;;
63499;SDS011;49654;51.142;14.924;2023-08-07T02:29:41;8.68;;;4.25;;
63499;SDS011;49654;51.142;14.924;2023-08-07T02:32:08;4.55;;;3.92;;
63499;SDS011;49654;51.142;14.924;2023-08-07T02:34:35;3.92;;;3.63;;
63499;SDS011;49654;51.142;14.924;2023-08-07T02:37:02;4.07;;;3.47;;
63499;SDS011;49654;51.142;14.924;2023-08-07T02:39:29;3.85;;;3.55;;
63499;SDS011;49654;51.142;14.924;2023-08-07T02:41:56;4.38;;;3.55;;
63499;SDS011;49654;51.142;14.924;2023-08-07T02:44:23;3.92;;;3.50;;
63499;SDS011;49654;51.142;14.924;2023-08-07T02:46:51;3.70;;;3.40;;
63499;SDS011;49654;51.142;14.924;2023-08-07T02:49:18;4.57;;;3.33;;
63499;SDS011;49654;51.142;14.924;2023-08-07T02:51:45;3.47;;;3.17;;
63499;SDS011;49654;51.142;14.924;2023-08-07T02:54:12;3.78;;;3.33;;
63499;SDS011;49654;51.142;14.924;2023-08-07T02:56:39;3.72;;;3.40;;
63499;SDS011;49654;51.142;14.924;2023-08-07T02:59:07;3.65;;;3.35;;
63499;SDS011;49654;51.142;14.924;2023-08-07T03:01:34;3.70;;;3.40;;
63499;SDS011;49654;51.142;14.924;2023-08-07T03:04:02;5.22;;;3.78;;
63499;SDS011;49654;51.142;14.924;2023-08-07T03:06:30;3.97;;;3.58;;
63499;SDS011;49654;51.142;14.924;2023-08-07T03:08:57;4.45;;;3.70;;
63499;SDS011;49654;51.142;14.924;2023-08-07T03:11:24;4.18;;;3.55;;
63499;SDS011;49654;51.142;14.924;2023-08-07T03:13:51;4.07;;;3.67;;
63499;SDS011;49654;51.142;14.924;2023-08-07T03:16:18;4.25;;;3.85;;
63499;SDS011;49654;51.142;14.924;2023-08-07T03:18:45;4.20;;;3.80;;
63499;SDS011;49654;51.142;14.924;2023-08-07T03:21:14;4.45;;;3.97;;
63499;SDS011;49654;51.142;14.924;2023-08-07T03:23:41;5.40;;;3.78;;
63499;SDS011;49654;51.142;14.924;2023-08-07T03:26:08;4.10;;;3.70;;
63499;SDS011;49654;51.142;14.924;2023-08-07T03:28:37;3.97;;;3.67;;
63499;SDS011;49654;51.142;14.924;2023-08-07T03:31:04;6.03;;;4.05;;
63499;SDS011;49654;51.142;14.924;2023-08-07T03:33:31;5.65;;;3.90;;
63499;SDS011;49654;51.142;14.924;2023-08-07T03:35:58;4.35;;;3.65;;
63499;SDS011;49654;51.142;14.924;2023-08-07T03:38:27;6.47;;;4.53;;
63499;SDS011;49654;51.142;14.924;2023-08-07T03:40:54;5.57;;;4.15;;
63499;SDS011;49654;51.142;14.924;2023-08-07T03:43:21;5.15;;;3.75;;
63499;SDS011;49654;51.142;14.924;2023-08-07T03:45:53;4.43;;;4.03;;
63499;SDS011;49654;51.142;14.924;2023-08-07T03:48:20;5.00;;;3.95;;
63499;SDS011;49654;51.142;14.924;2023-08-07T03:50:47;5.85;;;4.05;;
63499;SDS011;49654;51.142;14.924;2023-08-07T03:53:14;6.72;;;4.32;;
63499;SDS011;49654;51.142;14.924;2023-08-07T03:55:43;5.90;;;4.38;;
63499;SDS011;49654;51.142;14.924;2023-08-07T03:58:10;5.95;;;4.20;;
63499;SDS011;49654;51.142;14.924;2023-08-07T04:00:37;7.15;;;4.80;;
63499;SDS011;49654;51.142;14.924;2023-08-07T04:03:04;6.70;;;4.80;;
63499;SDS011;49654;51.142;14.924;2023-08-07T04:05:32;7.45;;;4.93;;
63499;SDS011;49654;51.142;14.924;2023-08-07T04:07:59;5.22;;;4.72;;
63499;SDS011;49654;51.142;14.924;2023-08-07T04:10:26;5.55;;;4.80;;
63499;SDS011;49654;51.142;14.924;2023-08-07T04:12:55;6.05;;;4.72;;
63499;SDS011;49654;51.142;14.924;2023-08-07T04:15:22;5.45;;;4.95;;
63499;SDS011;49654;51.142;14.924;2023-08-07T04:17:49;9.48;;;5.57;;
63499;SDS011;49654;51.142;14.924;2023-08-07T04:20:16;9.18;;;5.07;;
63499;SDS011;49654;51.142;14.924;2023-08-07T04:22:43;6.75;;;5.30;;
63499;SDS011;49654;51.142;14.924;2023-08-07T04:25:10;5.53;;;5.00;;
63499;SDS011;49654;51.142;14.924;2023-08-07T04:27:37;6.53;;;5.40;;
63499;SDS011;49654;51.142;14.924;2023-08-07T04:30:06;7.57;;;5.22;;
63499;SDS011;49654;51.142;14.924;2023-08-07T04:32:34;6.38;;;4.80;;
63499;SDS011;49654;51.142;14.924;2023-08-07T04:35:01;7.15;;;4.80;;
63499;SDS011;49654;51.142;14.924;2023-08-07T04:37:28;5.13;;;4.40;;
63499;SDS011;49654;51.142;14.924;2023-08-07T04:39:56;4.20;;;3.80;;
63499;SDS011;49654;51.142;14.924;2023-08-07T04:42:23;5.32;;;4.38;;
63499;SDS011;49654;51.142;14.924;2023-08-07T04:44:50;8.02;;;4.82;;
63499;SDS011;49654;51.142;14.924;2023-08-07T04:47:18;4.72;;;4.22;;
63499;SDS011;49654;51.142;14.924;2023-08-07T04:49:45;6.00;;;4.97;;
63499;SDS011;49654;51.142;14.924;2023-08-07T04:52:12;7.75;;;5.32;;
63499;SDS011;49654;51.142;14.924;2023-08-07T04:54:39;6.63;;;5.65;;
63499;SDS011;49654;51.142;14.924;2023-08-07T04:57:06;6.97;;;5.80;;
63499;SDS011;49654;51.142;14.924;2023-08-07T04:59:33;8.68;;;5.78;;
63499;SDS011;49654;51.142;14.924;2023-08-07T05:02:01;7.72;;;5.93;;
63499;SDS011;49654;51.142;14.924;2023-08-07T05:04:29;7.15;;;6.30;;
63499;SDS011;49654;51.142;14.924;2023-08-07T05:06:56;9.90;;;6.65;;
63499;SDS011;49654;51.142;14.924;2023-08-07T05:09:23;8.80;;;6.30;;
63499;SDS011;49654;51.142;14.924;2023-08-07T05:11:50;8.10;;;6.57;;
63499;SDS011;49654;51.142;14.924;2023-08-07T05:14:17;7.38;;;6.07;;
63499;SDS011;49654;51.142;14.924;2023-08-07T05:16:44;9.13;;;6.63;;
63499;SDS011;49654;51.142;14.924;2023-08-07T05:19:11;7.97;;;6.18;;
63499;SDS011;49654;51.142;14.924;2023-08-07T05:21:39;6.80;;;6.15;;
63499;SDS011;49654;51.142;14.924;2023-08-07T05:24:06;7.28;;;6.18;;
63499;SDS011;49654;51.142;14.924;2023-08-07T05:26:33;8.55;;;6.57;;
63499;SDS011;49654;51.142;14.924;2023-08-07T05:29:00;9.57;;;6.47;;
63499;SDS011;49654;51.142;14.924;2023-08-07T05:31:27;8.13;;;5.50;;
63499;SDS011;49654;51.142;14.924;2023-08-07T05:33:56;6.93;;;5.35;;
63499;SDS011;49654;51.142;14.924;2023-08-07T05:36:23;6.45;;;5.55;;
63499;SDS011;49654;51.142;14.924;2023-08-07T05:38:51;7.75;;;4.93;;
63499;SDS011;49654;51.142;14.924;2023-08-07T05:41:18;6.95;;;5.50;;
63499;SDS011;49654;51.142;14.924;2023-08-07T05:43:45;6.72;;;5.57;;
63499;SDS011;49654;51.142;14.924;2023-08-07T05:46:12;5.75;;;5.18;;
63499;SDS011;49654;51.142;14.924;2023-08-07T05:48:39;6.95;;;5.38;;
63499;SDS011;49654;51.142;14.924;2023-08-07T05:51:06;6.10;;;5.45;;
63499;SDS011;49654;51.142;14.924;2023-08-07T05:53:34;7.43;;;5.70;;
63499;SDS011;49654;51.142;14.924;2023-08-07T05:56:03;6.78;;;6.07;;
63499;SDS011;49654;51.142;14.924;2023-08-07T05:58:30;7.07;;;6.38;;
63499;SDS011;49654;51.142;14.924;2023-08-07T06:00:57;8.65;;;6.07;;
63499;SDS011;49654;51.142;14.924;2023-08-07T06:03:24;7.78;;;6.38;;
63499;SDS011;49654;51.142;14.924;2023-08-07T06:05:51;9.52;;;6.50;;
63499;SDS011;49654;51.142;14.924;2023-08-07T06:08:18;8.27;;;6.63;;
63499;SDS011;49654;51.142;14.924;2023-08-07T06:10:45;8.82;;;6.15;;
63499;SDS011;49654;51.142;14.924;2023-08-07T06:13:13;7.28;;;6.45;;
63499;SDS011;49654;51.142;14.924;2023-08-07T06:15:40;8.05;;;6.47;;
63499;SDS011;49654;51.142;14.924;2023-08-07T06:18:07;7.97;;;6.20;;
63499;SDS011;49654;51.142;14.924;2023-08-07T06:20:34;7.25;;;6.38;;
63499;SDS011;49654;51.142;14.924;2023-08-07T06:23:01;9.82;;;6.85;;
63499;SDS011;49654;51.142;14.924;2023-08-07T06:25:28;9.85;;;7.07;;
63499;SDS011;49654;51.142;14.924;2023-08-07T06:27:55;8.98;;;7.00;;
63499;SDS011;49654;51.142;14.924;2023-08-07T06:30:23;10.48;;;6.10;;
63499;SDS011;49654;51.142;14.924;2023-08-07T06:32:50;10.05;;;6.13;;
63499;SDS011;49654;51.142;14.924;2023-08-07T06:35:17;8.57;;;6.00;;
63499;SDS011;49654;51.142;14.924;2023-08-07T06:37:44;7.75;;;6.20;;
63499;SDS011;49654;51.142;14.924;2023-08-07T06:40:11;6.95;;;5.90;;
63499;SDS011;49654;51.142;14.924;2023-08-07T06:42:38;8.90;;;6.30;;
63499;SDS011;49654;51.142;14.924;2023-08-07T06:45:06;8.95;;;6.03;;
63499;SDS011;49654;51.142;14.924;2023-08-07T06:47:34;10.18;;;6.82;;
63499;SDS011;49654;51.142;14.924;2023-08-07T06:50:01;10.65;;;7.25;;
63499;SDS011;49654;51.142;14.924;2023-08-07T06:52:28;10.30;;;7.22;;
63499;SDS011;49654;51.142;14.924;2023-08-07T06:54:55;9.60;;;7.07;;
63499;SDS011;49654;51.142;14.924;2023-08-07T06:57:22;7.35;;;6.65;;
63499;SDS011;49654;51.142;14.924;2023-08-07T06:59:49;8.52;;;6.90;;
63499;SDS011;49654;51.142;14.924;2023-08-07T07:02:16;9.82;;;7.00;;
63499;SDS011;49654;51.142;14.924;2023-08-07T07:04:44;8.52;;;7.00;;
63499;SDS011;49654;51.142;14.924;2023-08-07T07:07:11;7.18;;;6.45;;
63499;SDS011;49654;51.142;14.924;2023-08-07T07:09:38;8.13;;;7.00;;
63499;SDS011;49654;51.142;14.924;2023-08-07T07:12:06;10.93;;;7.32;;
63499;SDS011;49654;51.142;14.924;2023-08-07T07:14:33;8.50;;;6.50;;
63499;SDS011;49654;51.142;14.924;2023-08-07T07:17:00;7.90;;;6.72;;
63499;SDS011;49654;51.142;14.924;2023-08-07T07:19:27;7.25;;;6.55;;
63499;SDS011;49654;51.142;14.924;2023-08-07T07:21:56;7.10;;;6.40;;
63499;SDS011;49654;51.142;14.924;2023-08-07T07:24:23;7.50;;;6.03;;
63499;SDS011;49654;51.142;14.924;2023-08-07T07:26:50;7.85;;;6.20;;
63499;SDS011;49654;51.142;14.924;2023-08-07T07:29:17;8.05;;;5.85;;
63499;SDS011;49654;51.142;14.924;2023-08-07T07:31:44;13.10;;;6.38;;
63499;SDS011;49654;51.142;14.924;2023-08-07T07:34:12;7.18;;;5.57;;
63499;SDS011;49654;51.142;14.924;2023-08-07T07:36:39;7.80;;;5.15;;
63499;SDS011;49654;51.142;14.924;2023-08-07T07:39:07;6.03;;;5.43;;
63499;SDS011;49654;51.142;14.924;2023-08-07T07:41:35;6.40;;;5.72;;
63499;SDS011;49654;51.142;14.924;2023-08-07T07:44:02;8.93;;;5.57;;
63499;SDS011;49654;51.142;14.924;2023-08-07T07:46:29;8.70;;;5.00;;
63499;SDS011;49654;51.142;14.924;2023-08-07T07:48:57;9.55;;;5.38;;
63499;SDS011;49654;51.142;14.924;2023-08-07T07:51:24;5.53;;;5.00;;
63499;SDS011;49654;51.142;14.924;2023-08-07T07:53:51;7.22;;;4.70;;
63499;SDS011;49654;51.142;14.924;2023-08-07T07:56:19;5.28;;;4.78;;
63499;SDS011;49654;51.142;14.924;2023-08-07T07:58:46;4.68;;;4.22;;
63499;SDS011;49654;51.142;14.924;2023-08-07T08:01:13;7.63;;;4.75;;
63499;SDS011;49654;51.142;14.924;2023-08-07T08:03:40;4.15;;;3.55;;
63499;SDS011;49654;51.142;14.924;2023-08-07T08:06:09;7.05;;;4.32;;
63499;SDS011;49654;51.142;14.924;2023-08-07T08:08:37;6.63;;;3.67;;
63499;SDS011;49654;51.142;14.924;2023-08-07T08:11:04;5.60;;;3.90;;
63499;SDS011;49654;51.142;14.924;2023-08-07T08:13:33;5.18;;;3.38;;
63499;SDS011;49654;51.142;14.924;2023-08-07T08:16:01;4.75;;;3.42;;
63499;SDS011;49654;51.142;14.924;2023-08-07T08:18:28;3.97;;;3.25;;
63499;SDS011;49654;51.142;14.924;2023-08-07T08:20:55;7.88;;;3.40;;
63499;SDS011;49654;51.142;14.924;2023-08-07T08:23:22;4.35;;;3.63;;
63499;SDS011;49654;51.142;14.924;2023-08-07T08:25:49;4.28;;;3.50;;
63499;SDS011;49654;51.142;14.924;2023-08-07T08:28:16;7.15;;;3.72;;
63499;SDS011;49654;51.142;14.924;2023-08-07T08:30:45;5.70;;;3.50;;
63499;SDS011;49654;51.142;14.924;2023-08-07T08:33:13;5.88;;;3.30;;
63499;SDS011;49654;51.142;14.924;2023-08-07T08:35:40;3.90;;;3.00;;
63499;SDS011;49654;51.142;14.924;2023-08-07T08:38:07;4.55;;;3.28;;
63499;SDS011;49654;51.142;14.924;2023-08-07T08:40:35;5.63;;;3.10;;
63499;SDS011;49654;51.142;14.924;2023-08-07T08:43:05;4.70;;;3.40;;
63499;SDS011;49654;51.142;14.924;2023-08-07T08:45:32;3.55;;;3.10;;
63499;SDS011;49654;51.142;14.924;2023-08-07T08:48:03;3.60;;;2.88;;
63499;SDS011;49654;51.142;14.924;2023-08-07T08:50:34;6.85;;;3.15;;
63499;SDS011;49654;51.142;14.924;2023-08-07T08:53:01;5.50;;;2.85;;
63499;SDS011;49654;51.142;14.924;2023-08-07T08:55:29;5.40;;;2.95;;
63499;SDS011;49654;51.142;14.924;2023-08-07T08:57:57;4.32;;;2.40;;
63499;SDS011;49654;51.142;14.924;2023-08-07T09:00:26;4.05;;;2.65;;
63499;SDS011;49654;51.142;14.924;2023-08-07T09:02:55;3.67;;;2.50;;
63499;SDS011;49654;51.142;14.924;2023-08-07T09:05:23;3.75;;;2.80;;
63499;SDS011;49654;51.142;14.924;2023-08-07T09:07:50;6.75;;;2.40;;
63499;SDS011;49654;51.142;14.924;2023-08-07T09:10:17;4.72;;;2.60;;
63499;SDS011;49654;51.142;14.924;2023-08-07T09:12:49;4.13;;;2.50;;
63499;SDS011;49654;51.142;14.924;2023-08-07T09:15:20;5.85;;;2.55;;
63499;SDS011;49654;51.142;14.924;2023-08-07T09:17:50;5.90;;;2.92;;
63499;SDS011;49654;51.142;14.924;2023-08-07T09:20:18;8.88;;;2.90;;
63499;SDS011;49654;51.142;14.924;2023-08-07T09:22:46;4.20;;;3.20;;
63499;SDS011;49654;51.142;14.924;2023-08-07T09:25:13;4.00;;;3.10;;
63499;SDS011;49654;51.142;14.924;2023-08-07T09:27:41;3.67;;;3.15;;
63499;SDS011;49654;51.142;14.924;2023-08-07T09:30:09;4.68;;;3.45;;
63499;SDS011;49654;51.142;14.924;2023-08-07T09:32:36;3.53;;;3.22;;
63499;SDS011;49654;51.142;14.924;2023-08-07T09:35:06;4.88;;;3.05;;
63499;SDS011;49654;51.142;14.924;2023-08-07T09:37:35;3.25;;;2.85;;
63499;SDS011;49654;51.142;14.924;2023-08-07T09:40:06;5.95;;;3.00;;
63499;SDS011;49654;51.142;14.924;2023-08-07T09:42:36;5.20;;;2.85;;
63499;SDS011;49654;51.142;14.924;2023-08-07T09:45:07;4.43;;;2.90;;
63499;SDS011;49654;51.142;14.924;2023-08-07T09:47:45;3.38;;;2.97;;
63499;SDS011;49654;51.142;14.924;2023-08-07T09:50:14;4.60;;;2.67;;
63499;SDS011;49654;51.142;14.924;2023-08-07T09:52:45;7.03;;;2.75;;
63499;SDS011;49654;51.142;14.924;2023-08-07T09:55:14;4.80;;;2.10;;
63499;SDS011;49654;51.142;14.924;2023-08-07T09:57:42;4.57;;;2.08;;
63499;SDS011;49654;51.142;14.924;2023-08-07T10:00:10;4.00;;;2.00;;
63499;SDS011;49654;51.142;14.924;2023-08-07T10:02:40;2.22;;;1.80;;
63499;SDS011;49654;51.142;14.924;2023-08-07T10:05:08;3.22;;;1.92;;
63499;SDS011;49654;51.142;14.924;2023-08-07T10:07:36;5.95;;;2.10;;
63499;SDS011;49654;51.142;14.924;2023-08-07T10:10:04;3.03;;;2.08;;
63499;SDS011;49654;51.142;14.924;2023-08-07T10:12:33;2.90;;;1.60;;
63499;SDS011;49654;51.142;14.924;2023-08-07T10:15:00;7.57;;;1.80;;
63499;SDS011;49654;51.142;14.924;2023-08-07T10:17:28;2.00;;;1.80;;
63499;SDS011;49654;51.142;14.924;2023-08-07T10:19:56;5.97;;;2.10;;
63499;SDS011;49654;51.142;14.924;2023-08-07T10:22:24;2.67;;;1.70;;
63499;SDS011;49654;51.142;14.924;2023-08-07T10:24:52;3.10;;;1.83;;
63499;SDS011;49654;51.142;14.924;2023-08-07T10:27:23;2.30;;;1.83;;
63499;SDS011;49654;51.142;14.924;2023-08-07T10:29:53;21.42;;;3.13;;
63499;SDS011;49654;51.142;14.924;2023-08-07T10:32:23;3.03;;;1.88;;
63499;SDS011;49654;51.142;14.924;2023-08-07T10:34:52;4.15;;;1.98;;
63499;SDS011;49654;51.142;14.924;2023-08-07T10:37:31;4.43;;;1.70;;
63499;SDS011;49654;51.142;14.924;2023-08-07T10:40:03;4.32;;;1.88;;
63499;SDS011;49654;51.142;14.924;2023-08-07T10:42:33;3.47;;;2.08;;
63499;SDS011;49654;51.142;14.924;2023-08-07T10:45:17;4.75;;;2.10;;
63499;SDS011;49654;51.142;14.924;2023-08-07T10:47:56;3.92;;;1.70;;
63499;SDS011;49654;51.142;14.924;2023-08-07T10:50:27;2.92;;;1.95;;
63499;SDS011;49654;51.142;14.924;2023-08-07T10:52:55;1.95;;;1.58;;
63499;SDS011;49654;51.142;14.924;2023-08-07T10:55:22;3.42;;;1.90;;
63499;SDS011;49654;51.142;14.924;2023-08-07T10:57:50;8.05;;;2.22;;
63499;SDS011;49654;51.142;14.924;2023-08-07T11:00:18;3.70;;;2.30;;
63499;SDS011;49654;51.142;14.924;2023-08-07T11:02:52;5.70;;;2.78;;
63499;SDS011;49654;51.142;14.924;2023-08-07T11:05:19;5.93;;;2.58;;
63499;SDS011;49654;51.142;14.924;2023-08-07T11:07:46;5.78;;;2.83;;
63499;SDS011;49654;51.142;14.924;2023-08-07T11:10:13;5.18;;;3.00;;
63499;SDS011;49654;51.142;14.924;2023-08-07T11:12:43;4.20;;;2.85;;
63499;SDS011;49654;51.142;14.924;2023-08-07T11:15:11;3.13;;;2.83;;
63499;SDS011;49654;51.142;14.924;2023-08-07T11:17:41;3.67;;;2.90;;
63499;SDS011;49654;51.142;14.924;2023-08-07T11:20:08;2.70;;;2.33;;
63499;SDS011;49654;51.142;14.924;2023-08-07T11:22:37;2.40;;;2.17;;
63499;SDS011;49654;51.142;14.924;2023-08-07T11:25:06;3.45;;;2.40;;
63499;SDS011;49654;51.142;14.924;2023-08-07T11:27:39;3.25;;;2.67;;
63499;SDS011;49654;51.142;14.924;2023-08-07T11:30:10;2.67;;;2.40;;
63499;SDS011;49654;51.142;14.924;2023-08-07T11:32:38;2.00;;;1.70;;
63499;SDS011;49654;51.142;14.924;2023-08-07T11:35:07;3.50;;;1.80;;
63499;SDS011;49654;51.142;14.924;2023-08-07T11:37:35;3.78;;;2.20;;
63499;SDS011;49654;51.142;14.924;2023-08-07T11:40:02;3.65;;;2.17;;
63499;SDS011;49654;51.142;14.924;2023-08-07T11:42:30;2.92;;;1.80;;
63499;SDS011;49654;51.142;14.924;2023-08-07T11:44:57;2.90;;;1.80;;
63499;SDS011;49654;51.142;14.924;2023-08-07T11:47:24;2.78;;;1.83;;
63499;SDS011;49654;51.142;14.924;2023-08-07T11:49:52;2.22;;;1.80;;
63499;SDS011;49654;51.142;14.924;2023-08-07T11:52:21;2.75;;;1.63;;
63499;SDS011;49654;51.142;14.924;2023-08-07T11:54:49;1.98;;;1.67;;
63499;SDS011;49654;51.142;14.924;2023-08-07T11:57:16;2.58;;;1.80;;
63499;SDS011;49654;51.142;14.924;2023-08-07T11:59:47;6.88;;;2.30;;
63499;SDS011;49654;51.142;14.924;2023-08-07T12:02:15;2.15;;;1.83;;
63499;SDS011;49654;51.142;14.924;2023-08-07T12:04:42;2.80;;;2.13;;
63499;SDS011;49654;51.142;14.924;2023-08-07T12:07:10;2.85;;;2.10;;
63499;SDS011;49654;51.142;14.924;2023-08-07T12:09:40;2.22;;;2.03;;
63499;SDS011;49654;51.142;14.924;2023-08-07T12:12:07;2.65;;;1.90;;
63499;SDS011;49654;51.142;14.924;2023-08-07T12:14:35;3.05;;;2.00;;
63499;SDS011;49654;51.142;14.924;2023-08-07T12:17:02;4.72;;;2.00;;
63499;SDS011;49654;51.142;14.924;2023-08-07T12:19:36;1.90;;;1.75;;
63499;SDS011;49654;51.142;14.924;2023-08-07T12:22:05;2.13;;;1.80;;
63499;SDS011;49654;51.142;14.924;2023-08-07T12:24:34;3.80;;;1.70;;
63499;SDS011;49654;51.142;14.924;2023-08-07T12:27:03;3.03;;;1.55;;
63499;SDS011;49654;51.142;14.924;2023-08-07T12:29:31;2.00;;;1.33;;
63499;SDS011;49654;51.142;14.924;2023-08-07T12:31:58;2.05;;;1.00;;
63499;SDS011;49654;51.142;14.924;2023-08-07T12:34:28;2.15;;;1.02;;
63499;SDS011;49654;51.142;14.924;2023-08-07T12:36:55;4.28;;;1.33;;
63499;SDS011;49654;51.142;14.924;2023-08-07T12:39:22;1.58;;;1.30;;
63499;SDS011;49654;51.142;14.924;2023-08-07T12:41:49;1.52;;;1.20;;
63499;SDS011;49654;51.142;14.924;2023-08-07T12:44:18;1.30;;;1.20;;
63499;SDS011;49654;51.142;14.924;2023-08-07T12:46:45;1.20;;;1.10;;
63499;SDS011;49654;51.142;14.924;2023-08-07T12:49:12;1.25;;;1.15;;
63499;SDS011;49654;51.142;14.924;2023-08-07T12:51:39;1.40;;;1.10;;
63499;SDS011;49654;51.142;14.924;2023-08-07T12:54:06;2.42;;;1.30;;
63499;SDS011;49654;51.142;14.924;2023-08-07T12:56:33;1.38;;;1.27;;
63499;SDS011;49654;51.142;14.924;2023-08-07T12:59:00;4.00;;;1.35;;
63499;SDS011;49654;51.142;14.924;2023-08-07T13:01:28;1.55;;;1.23;;
63499;SDS011;49654;51.142;14.924;2023-08-07T13:03:55;2.08;;;1.30;;
63499;SDS011;49654;51.142;14.924;2023-08-07T13:06:22;2.33;;;1.55;;
63499;SDS011;49654;51.142;14.924;2023-08-07T13:08:49;2.63;;;1.30;;
63499;SDS011;49654;51.142;14.924;2023-08-07T13:11:16;2.55;;;1.50;;
63499;SDS011;49654;51.142;14.924;2023-08-07T13:13:44;1.00;;;1.00;;
63499;SDS011;49654;51.142;14.924;2023-08-07T13:16:11;1.88;;;1.30;;
63499;SDS011;49654;51.142;14.924;2023-08-07T13:18:39;3.63;;;1.20;;
63499;SDS011;49654;51.142;14.924;2023-08-07T13:21:06;1.20;;;1.10;;
63499;SDS011;49654;51.142;14.924;2023-08-07T13:23:33;1.73;;;1.10;;
63499;SDS011;49654;51.142;14.924;2023-08-07T13:26:00;1.70;;;1.10;;
63499;SDS011;49654;51.142;14.924;2023-08-07T13:28:27;1.23;;;0.90;;
63499;SDS011;49654;51.142;14.924;2023-08-07T13:30:54;1.08;;;0.98;;
63499;SDS011;49654;51.142;14.924;2023-08-07T13:33:23;1.67;;;1.00;;
63499;SDS011;49654;51.142;14.924;2023-08-07T13:35:52;1.23;;;0.70;;
63499;SDS011;49654;51.142;14.924;2023-08-07T13:38:19;2.88;;;0.98;;
63499;SDS011;49654;51.142;14.924;2023-08-07T13:40:46;2.88;;;1.00;;
63499;SDS011;49654;51.142;14.924;2023-08-07T13:43:13;1.02;;;0.90;;
63499;SDS011;49654;51.142;14.924;2023-08-07T13:45:40;1.05;;;0.98;;
63499;SDS011;49654;51.142;14.924;2023-08-07T13:48:07;2.13;;;1.10;;
63499;SDS011;49654;51.142;14.924;2023-08-07T13:50:35;2.72;;;1.13;;
63499;SDS011;49654;51.142;14.924;2023-08-07T13:53:05;2.25;;;1.10;;
63499;SDS011;49654;51.142;14.924;2023-08-07T13:55:32;2.13;;;1.20;;
63499;SDS011;49654;51.142;14.924;2023-08-07T13:57:59;1.80;;;1.13;;
63499;SDS011;49654;51.142;14.924;2023-08-07T14:00:26;1.67;;;0.88;;
63499;SDS011;49654;51.142;14.924;2023-08-07T14:02:53;1.65;;;1.02;;
63499;SDS011;49654;51.142;14.924;2023-08-07T14:05:21;1.10;;;1.00;;
63499;SDS011;49654;51.142;14.924;2023-08-07T14:07:48;3.05;;;1.00;;
63499;SDS011;49654;51.142;14.924;2023-08-07T14:10:16;1.02;;;1.02;;
63499;SDS011;49654;51.142;14.924;2023-08-07T14:12:43;1.10;;;1.00;;
63499;SDS011;49654;51.142;14.924;2023-08-07T14:15:10;2.40;;;1.00;;
63499;SDS011;49654;51.142;14.924;2023-08-07T14:17:38;1.00;;;0.90;;
63499;SDS011;49654;51.142;14.924;2023-08-07T14:20:05;2.33;;;1.10;;
63499;SDS011;49654;51.142;14.924;2023-08-07T14:22:35;1.50;;;1.08;;
63499;SDS011;49654;51.142;14.924;2023-08-07T14:25:04;1.65;;;1.10;;
63499;SDS011;49654;51.142;14.924;2023-08-07T14:27:33;1.45;;;0.90;;
63499;SDS011;49654;51.142;14.924;2023-08-07T14:30:00;0.85;;;0.85;;
63499;SDS011;49654;51.142;14.924;2023-08-07T14:32:27;4.72;;;1.10;;
63499;SDS011;49654;51.142;14.924;2023-08-07T14:34:54;1.02;;;1.00;;
63499;SDS011;49654;51.142;14.924;2023-08-07T14:37:21;2.20;;;1.10;;